createdAt,value
2023-02-24T00:00:38.744Z,26.03
2023-02-24T00:03:11.722Z,25.90
2023-02-24T00:05:42.983Z,25.73
2023-02-24T00:08:12.403Z,25.40
2023-02-24T00:10:42.378Z,25.23
2023-02-24T00:13:12.321Z,25.10
2023-02-24T00:15:40.912Z,24.87
2023-02-24T00:18:09.571Z,26.70
2023-02-24T00:20:37.976Z,25.93
2023-02-24T00:23:06.386Z,25.47
2023-02-24T00:25:34.900Z,25.37
2023-02-24T00:28:04.769Z,24.10
2023-02-24T00:30:33.332Z,26.13
2023-02-24T00:33:03.039Z,27.10
2023-02-24T00:35:31.869Z,27.17
2023-02-24T00:38:01.015Z,26.70
2023-02-24T00:40:30.687Z,29.77
2023-02-24T00:42:59.415Z,28.60
2023-02-24T00:45:31.163Z,31.63
2023-02-24T00:47:59.817Z,30.57
2023-02-24T00:50:28.356Z,27.17
2023-02-24T00:52:56.726Z,26.70
2023-02-24T00:55:28.017Z,28.20
2023-02-24T00:57:56.692Z,32.87
2023-02-24T01:00:25.901Z,29.33
2023-02-24T01:03:00.695Z,29.43
2023-02-24T01:05:29.482Z,29.60
2023-02-24T01:07:58.054Z,27.50
2023-02-24T01:10:28.637Z,27.13
2023-02-24T01:12:59.124Z,27.27
2023-02-24T01:15:27.614Z,28.30
2023-02-24T01:17:57.571Z,29.40
2023-02-24T01:20:30.283Z,27.77
2023-02-24T01:22:58.886Z,30.03
2023-02-24T01:25:31.539Z,27.57
2023-02-24T01:28:00.009Z,29.43
2023-02-24T01:30:28.373Z,30.47
2023-02-24T01:32:58.588Z,29.60
2023-02-24T01:35:27.381Z,30.90
2023-02-24T01:37:56.352Z,29.43
2023-02-24T01:40:26.894Z,28.00
2023-02-24T01:42:55.300Z,26.87
2023-02-24T01:45:26.237Z,28.43
2023-02-24T01:47:58.625Z,27.43
2023-02-24T01:50:29.742Z,27.13
2023-02-24T01:53:01.830Z,28.20
2023-02-24T01:55:34.101Z,27.80
2023-02-24T01:58:06.199Z,27.73
2023-02-24T02:00:38.535Z,29.33
2023-02-24T02:03:13.431Z,28.20
2023-02-24T02:05:45.408Z,26.30
2023-02-24T02:08:15.168Z,29.53
2023-02-24T02:10:45.560Z,29.73
2023-02-24T02:13:23.699Z,31.67
2023-02-24T02:16:03.138Z,35.23
2023-02-24T02:18:43.777Z,33.70
2023-02-24T02:21:36.458Z,32.50
2023-02-24T02:24:29.529Z,30.77
2023-02-24T02:27:21.309Z,28.90
2023-02-24T02:30:19.783Z,30.40
2023-02-24T02:33:21.812Z,29.47
2023-02-24T02:36:00.834Z,30.60
2023-02-24T02:38:37.824Z,31.33
2023-02-24T02:41:17.795Z,31.17
2023-02-24T02:43:52.745Z,30.43
2023-02-24T02:46:35.103Z,29.30
2023-02-24T02:49:15.340Z,30.23
2023-02-24T02:51:52.008Z,29.57
2023-02-24T02:54:28.525Z,28.53
2023-02-24T02:57:03.891Z,29.47
2023-02-24T02:59:36.604Z,30.73
2023-02-24T03:02:15.201Z,29.33
2023-02-24T03:04:46.847Z,30.80
2023-02-24T03:07:20.020Z,29.80
2023-02-24T03:09:53.212Z,33.60
2023-02-24T03:12:24.609Z,30.53
2023-02-24T03:14:59.791Z,28.53
2023-02-24T03:17:31.776Z,27.63
2023-02-24T03:20:15.246Z,27.87
2023-02-24T03:22:50.125Z,27.83
2023-02-24T03:25:19.992Z,28.70
2023-02-24T03:27:55.837Z,30.13
2023-02-24T03:30:30.130Z,28.03
2023-02-24T03:33:04.303Z,27.97
2023-02-24T03:35:37.947Z,26.90
2023-02-24T03:38:10.443Z,31.53
2023-02-24T03:40:39.823Z,31.70
2023-02-24T03:43:17.149Z,32.17
2023-02-24T03:45:46.879Z,31.47
2023-02-24T03:48:16.240Z,31.77
2023-02-24T03:50:45.295Z,32.90
2023-02-24T03:53:32.098Z,32.57
2023-02-24T03:56:11.267Z,29.20
2023-02-24T03:58:52.254Z,29.90
2023-02-24T04:01:26.556Z,27.57
2023-02-24T04:04:03.083Z,29.00
2023-02-24T04:06:42.033Z,28.57
2023-02-24T04:09:20.255Z,28.10
2023-02-24T04:11:54.990Z,28.77
2023-02-24T04:14:29.477Z,27.47
2023-02-24T04:17:03.299Z,27.53
2023-02-24T04:19:38.694Z,28.93
2023-02-24T04:22:10.310Z,30.33
2023-02-24T04:24:42.527Z,27.63
2023-02-24T04:27:13.714Z,27.10
2023-02-24T04:29:48.519Z,28.13
2023-02-24T04:32:21.181Z,28.43
2023-02-24T04:34:50.254Z,26.00
2023-02-24T04:37:23.317Z,28.33
2023-02-24T04:39:53.275Z,27.07
2023-02-24T04:42:22.538Z,26.67
2023-02-24T04:44:50.897Z,26.53
2023-02-24T04:47:19.285Z,26.50
2023-02-24T04:49:47.730Z,28.23
2023-02-24T04:52:16.547Z,25.03
2023-02-24T04:54:45.065Z,26.80
2023-02-24T04:57:14.894Z,27.17
2023-02-24T04:59:44.453Z,28.13
2023-02-24T05:02:18.893Z,26.50
2023-02-24T05:04:49.846Z,27.13
2023-02-24T05:07:18.388Z,26.37
2023-02-24T05:09:49.217Z,26.63
2023-02-24T05:12:19.140Z,26.53
2023-02-24T05:14:49.628Z,25.93
2023-02-24T05:17:18.948Z,24.53
2023-02-24T05:20:04.775Z,26.03
2023-02-24T05:22:33.270Z,25.83
2023-02-24T05:25:01.707Z,26.27
2023-02-24T05:27:31.677Z,27.33
2023-02-24T05:30:00.190Z,27.70
2023-02-24T05:32:28.720Z,28.30
2023-02-24T05:34:57.172Z,27.97
2023-02-24T05:37:25.961Z,26.60
2023-02-24T05:39:56.990Z,26.97
2023-02-24T05:42:25.439Z,27.17
2023-02-24T05:44:55.441Z,26.50
2023-02-24T05:47:25.672Z,26.30
2023-02-24T05:49:57.006Z,25.13
2023-02-24T05:52:25.376Z,26.07
2023-02-24T05:54:53.844Z,25.60
2023-02-24T05:57:25.994Z,24.97
2023-02-24T05:59:56.714Z,25.47
2023-02-24T06:02:29.466Z,25.60
2023-02-24T06:04:59.170Z,24.63
2023-02-24T06:07:29.698Z,26.27
2023-02-24T06:10:00.331Z,23.47
2023-02-24T06:12:30.234Z,24.03
2023-02-24T06:15:00.247Z,24.13
2023-02-24T06:17:29.884Z,23.93
2023-02-24T06:19:58.334Z,24.70
2023-02-24T06:22:28.280Z,24.60
2023-02-24T06:24:57.635Z,24.33
2023-02-24T06:27:26.132Z,24.87
2023-02-24T06:29:56.962Z,24.43
2023-02-24T06:32:28.237Z,23.67
2023-02-24T06:34:59.606Z,25.43
2023-02-24T06:37:28.504Z,22.67
2023-02-24T06:39:58.469Z,23.20
2023-02-24T06:42:26.942Z,21.33
2023-02-24T06:44:55.416Z,17.00
2023-02-24T06:47:23.817Z,13.80
2023-02-24T06:49:53.815Z,12.93
2023-02-24T06:52:22.237Z,12.70
2023-02-24T06:54:52.636Z,13.40
2023-02-24T06:57:21.061Z,13.80
2023-02-24T06:59:51.068Z,14.30
2023-02-24T07:02:19.492Z,14.07
2023-02-24T07:04:47.937Z,15.83
2023-02-24T07:07:19.112Z,14.80
2023-02-24T07:09:47.512Z,15.73
2023-02-24T07:12:21.387Z,16.33
2023-02-24T07:14:50.839Z,15.10
2023-02-24T07:17:21.528Z,16.43
2023-02-24T07:19:49.866Z,15.63
2023-02-24T07:22:25.475Z,15.43
2023-02-24T07:25:00.746Z,14.80
2023-02-24T07:27:29.332Z,15.13
2023-02-24T07:29:59.493Z,13.97
2023-02-24T07:32:28.132Z,14.13
2023-02-24T07:34:56.541Z,14.00
2023-02-24T07:37:28.334Z,14.17
2023-02-24T07:39:56.724Z,11.93
2023-02-24T07:42:25.925Z,12.53
2023-02-24T07:44:55.329Z,11.77
2023-02-24T07:47:25.363Z,12.40
2023-02-24T07:49:54.040Z,11.63
2023-02-24T07:52:22.856Z,11.27
2023-02-24T07:54:53.174Z,11.07
2023-02-24T07:57:25.414Z,12.10
2023-02-24T07:59:54.387Z,11.37
2023-02-24T08:02:23.975Z,11.27
2023-02-24T08:04:52.626Z,11.13
2023-02-24T08:07:25.227Z,11.53
2023-02-24T08:10:12.810Z,12.33
2023-02-24T08:12:45.472Z,12.17
2023-02-24T08:15:24.961Z,12.53
2023-02-24T08:17:59.801Z,11.27
2023-02-24T08:20:36.485Z,12.37
2023-02-24T08:23:08.824Z,12.80
2023-02-24T08:25:38.811Z,14.00
2023-02-24T08:28:11.992Z,13.57
2023-02-24T08:30:46.096Z,14.40
2023-02-24T08:33:19.582Z,13.73
2023-02-24T08:35:53.284Z,12.90
2023-02-24T08:38:26.604Z,13.23
2023-02-24T08:40:59.479Z,13.70
2023-02-24T08:43:33.679Z,13.60
2023-02-24T08:46:18.711Z,12.37
2023-02-24T08:48:49.662Z,11.93
2023-02-24T08:51:23.544Z,11.87
2023-02-24T08:53:54.057Z,10.27
2023-02-24T08:56:26.924Z,10.63
2023-02-24T08:58:58.377Z,11.37
2023-02-24T09:01:34.805Z,10.70
2023-02-24T09:04:05.866Z,10.87
2023-02-24T09:06:44.395Z,10.13
2023-02-24T09:09:21.260Z,11.03
2023-02-24T09:11:56.688Z,11.93
2023-02-24T09:14:28.993Z,11.73
2023-02-24T09:17:06.510Z,12.00
2023-02-24T09:19:58.022Z,12.07
2023-02-24T09:22:41.117Z,11.13
2023-02-24T09:25:21.958Z,11.87
2023-02-24T09:27:55.360Z,12.57
2023-02-24T09:30:37.177Z,11.27
2023-02-24T09:33:21.425Z,10.70
2023-02-24T09:35:52.983Z,9.67
2023-02-24T09:38:46.476Z,10.30
2023-02-24T09:41:32.109Z,9.00
2023-02-24T09:44:08.112Z,8.67
2023-02-24T09:46:54.252Z,8.60
2023-02-24T09:49:25.578Z,9.00
2023-02-24T09:52:00.829Z,8.77
2023-02-24T09:54:35.511Z,8.80
2023-02-24T09:57:17.156Z,7.93
2023-02-24T10:00:22.287Z,8.77
2023-02-24T10:03:04.087Z,8.87
2023-02-24T10:05:39.599Z,9.00
2023-02-24T10:08:18.035Z,8.53
2023-02-24T10:11:07.046Z,8.87
2023-02-24T10:13:38.936Z,8.70
2023-02-24T10:16:15.975Z,9.37
2023-02-24T10:18:48.834Z,7.47
2023-02-24T10:21:31.010Z,8.63
2023-02-24T10:24:15.783Z,8.17
2023-02-24T10:27:00.794Z,8.73
2023-02-24T10:29:55.703Z,8.67
2023-02-24T10:32:34.219Z,8.67
2023-02-24T10:35:04.167Z,8.63
2023-02-24T10:37:32.847Z,8.93
2023-02-24T10:40:10.128Z,8.57
2023-02-24T10:42:46.093Z,7.47
2023-02-24T10:45:19.647Z,5.47
2023-02-24T10:47:58.003Z,5.27
2023-02-24T10:50:32.298Z,5.30
2023-02-24T10:53:34.713Z,5.10
2023-02-24T10:56:32.517Z,4.47
2023-02-24T10:59:42.042Z,5.10
2023-02-24T11:02:29.999Z,5.07
2023-02-24T11:05:27.345Z,5.30
2023-02-24T11:08:09.686Z,5.03
2023-02-24T11:10:53.518Z,5.43
2023-02-24T11:13:39.580Z,5.60
2023-02-24T11:16:28.211Z,5.27
2023-02-24T11:18:58.488Z,5.13
2023-02-24T11:21:29.500Z,5.43
2023-02-24T11:24:03.123Z,5.00
2023-02-24T11:26:37.485Z,5.90
2023-02-24T11:29:31.662Z,5.40
2023-02-24T11:32:23.431Z,5.73
2023-02-24T11:34:58.259Z,6.07
2023-02-24T11:37:38.053Z,6.57
2023-02-24T11:40:13.507Z,5.83
2023-02-24T11:42:46.403Z,6.17
2023-02-24T11:45:29.584Z,5.57
2023-02-24T11:48:03.258Z,5.00
2023-02-24T11:50:39.868Z,4.57
2023-02-24T11:53:24.912Z,4.50
2023-02-24T11:55:59.979Z,4.37
2023-02-24T11:58:36.128Z,4.17
2023-02-24T12:01:11.457Z,4.67
2023-02-24T12:03:49.472Z,5.00
2023-02-24T12:06:23.390Z,4.67
2023-02-24T12:09:01.855Z,5.70
2023-02-24T12:11:39.886Z,5.17
2023-02-24T12:14:20.015Z,5.37
2023-02-24T12:16:53.548Z,5.40
2023-02-24T12:19:29.088Z,5.47
2023-02-24T12:22:05.743Z,6.23
2023-02-24T12:24:38.080Z,6.07
2023-02-24T12:27:19.940Z,5.63
2023-02-24T12:30:06.835Z,5.77
2023-02-24T12:32:53.964Z,6.03
2023-02-24T12:35:34.391Z,5.83
2023-02-24T12:38:26.373Z,6.43
2023-02-24T12:41:09.388Z,6.03
2023-02-24T12:43:45.452Z,6.47
2023-02-24T12:46:23.456Z,6.40
2023-02-24T12:49:10.654Z,6.87
2023-02-24T12:51:47.555Z,6.80
2023-02-24T12:54:24.363Z,6.60
2023-02-24T12:57:01.674Z,6.90
2023-02-24T12:59:33.675Z,6.47
2023-02-24T13:02:07.723Z,7.13
2023-02-24T13:04:44.744Z,6.63
2023-02-24T13:07:31.882Z,6.10
2023-02-24T13:10:13.346Z,5.23
2023-02-24T13:12:50.713Z,5.30
2023-02-24T13:15:23.033Z,5.30
2023-02-24T13:17:53.498Z,5.50
2023-02-24T13:20:31.447Z,5.23
2023-02-24T13:23:01.221Z,4.63
2023-02-24T13:25:34.406Z,4.73
2023-02-24T13:28:06.123Z,5.20
2023-02-24T13:30:39.529Z,4.13
2023-02-24T13:33:23.440Z,4.37
2023-02-24T13:35:53.859Z,4.00
2023-02-24T13:38:26.999Z,3.67
2023-02-24T13:40:55.712Z,3.80
2023-02-24T13:43:28.856Z,4.40
2023-02-24T13:46:00.481Z,3.80
2023-02-24T13:48:54.849Z,4.20
2023-02-24T13:51:51.073Z,4.10
2023-02-24T13:54:40.797Z,4.43
2023-02-24T13:57:42.938Z,3.73
2023-02-24T14:00:26.394Z,3.20
2023-02-24T14:02:55.278Z,3.70
2023-02-24T14:05:28.222Z,3.37
2023-02-24T14:07:58.015Z,4.07
2023-02-24T14:10:28.918Z,4.23
2023-02-24T14:13:04.965Z,3.50
2023-02-24T14:15:35.990Z,3.23
2023-02-24T14:18:06.780Z,3.20
2023-02-24T14:20:38.139Z,3.60
2023-02-24T14:23:23.978Z,3.23
2023-02-24T14:25:57.247Z,3.17
2023-02-24T14:28:29.175Z,3.40
2023-02-24T14:31:01.311Z,3.30
2023-02-24T14:33:32.982Z,3.27
2023-02-24T14:36:04.660Z,3.40
2023-02-24T14:38:35.790Z,3.30
2023-02-24T14:41:07.154Z,3.17
2023-02-24T14:43:42.310Z,3.33
2023-02-24T14:46:12.311Z,3.30
2023-02-24T14:48:40.726Z,3.13
2023-02-24T14:51:13.011Z,3.30
2023-02-24T14:53:51.967Z,3.20
2023-02-24T14:56:23.429Z,3.17
2023-02-24T14:58:55.597Z,3.10
2023-02-24T15:01:31.962Z,3.50
2023-02-24T15:04:03.499Z,3.50
2023-02-24T15:06:40.963Z,3.50
2023-02-24T15:09:16.109Z,3.87
2023-02-24T15:11:45.249Z,3.50
2023-02-24T15:14:22.483Z,4.17
2023-02-24T15:16:54.556Z,3.90
2023-02-24T15:19:27.885Z,3.83
2023-02-24T15:21:56.463Z,4.17
2023-02-24T15:24:28.223Z,5.80
2023-02-24T15:26:58.634Z,8.27
2023-02-24T15:29:29.148Z,9.00
2023-02-24T15:32:01.566Z,9.60
2023-02-24T15:34:32.420Z,6.20
2023-02-24T15:37:04.560Z,5.40
2023-02-24T15:39:37.169Z,8.30
2023-02-24T15:42:10.816Z,4.90
2023-02-24T15:44:39.195Z,3.70
2023-02-24T15:47:28.509Z,4.47
2023-02-24T15:49:57.102Z,4.70
2023-02-24T15:52:28.520Z,5.40
2023-02-24T15:54:59.593Z,6.60
2023-02-24T15:57:30.270Z,5.30
2023-02-24T15:59:58.721Z,5.80
2023-02-24T16:02:30.319Z,4.53
2023-02-24T16:04:58.675Z,4.53
2023-02-24T16:07:31.448Z,5.27
2023-02-24T16:10:02.111Z,4.87
2023-02-24T16:12:33.219Z,5.37
2023-02-24T16:15:05.746Z,6.03
2023-02-24T16:17:39.182Z,5.10
2023-02-24T16:20:09.831Z,6.07
2023-02-24T16:22:38.228Z,5.83
2023-02-24T16:25:08.024Z,6.40
2023-02-24T16:27:37.469Z,7.03
2023-02-24T16:30:07.062Z,8.60
2023-02-24T16:32:36.953Z,14.20
2023-02-24T16:35:08.502Z,12.73
2023-02-24T16:37:36.892Z,9.77
2023-02-24T16:40:10.812Z,7.57
2023-02-24T16:42:39.208Z,7.40
2023-02-24T16:45:08.601Z,8.30
2023-02-24T16:47:38.433Z,23.07
2023-02-24T16:50:08.084Z,24.47
2023-02-24T16:52:36.472Z,24.27
2023-02-24T16:55:05.002Z,25.20
2023-02-24T16:57:33.392Z,19.37
2023-02-24T17:00:01.870Z,8.33
2023-02-24T17:02:30.259Z,6.30
2023-02-24T17:05:00.148Z,7.47
2023-02-24T17:07:28.476Z,6.87
2023-02-24T17:09:56.887Z,5.53
2023-02-24T17:12:25.289Z,4.20
2023-02-24T17:14:53.893Z,4.27
2023-02-24T17:17:22.299Z,3.90
2023-02-24T17:19:51.823Z,4.00
2023-02-24T17:22:22.429Z,3.63
2023-02-24T17:24:50.924Z,3.97
2023-02-24T17:27:19.321Z,4.30
2023-02-24T17:29:47.895Z,4.17
2023-02-24T17:32:16.455Z,4.17
2023-02-24T17:34:45.096Z,4.50
2023-02-24T17:37:13.789Z,4.23
2023-02-24T17:39:43.643Z,4.83
2023-02-24T17:42:12.544Z,5.00
2023-02-24T17:44:40.872Z,4.60
2023-02-24T17:47:09.337Z,5.23
2023-02-24T17:49:37.691Z,4.70
2023-02-24T17:52:06.419Z,5.40
2023-02-24T17:54:34.820Z,5.60
2023-02-24T17:57:04.786Z,5.37
2023-02-24T17:59:33.367Z,5.60
2023-02-24T18:02:02.528Z,5.17
2023-02-24T18:04:31.203Z,5.57
2023-02-24T18:06:59.584Z,5.20
2023-02-24T18:09:28.453Z,5.73
2023-02-24T18:11:56.770Z,5.60
2023-02-24T18:14:26.554Z,5.67
2023-02-24T18:16:54.980Z,5.57
2023-02-24T18:19:23.778Z,5.50
2023-02-24T18:21:52.169Z,5.70
2023-02-24T18:24:22.989Z,6.10
2023-02-24T18:26:51.503Z,5.50
2023-02-24T18:29:19.934Z,6.77
2023-02-24T18:31:50.007Z,6.27
2023-02-24T18:34:18.486Z,6.53
2023-02-24T18:36:46.827Z,7.10
2023-02-24T18:39:15.948Z,6.80
2023-02-24T18:41:44.655Z,7.27
2023-02-24T18:44:13.737Z,6.87
2023-02-24T18:46:42.482Z,7.80
2023-02-24T18:49:12.759Z,8.37
2023-02-24T18:51:41.162Z,8.87
2023-02-24T18:54:09.578Z,8.57
2023-02-24T18:56:38.001Z,8.17
2023-02-24T18:59:06.468Z,8.43
2023-02-24T19:01:37.366Z,10.03
2023-02-24T19:04:06.993Z,10.90
2023-02-24T19:06:37.638Z,10.83
2023-02-24T19:09:09.933Z,9.90
2023-02-24T19:11:39.284Z,12.87
2023-02-24T19:14:08.524Z,24.80
2023-02-24T19:16:38.285Z,62.03
2023-02-24T19:19:06.788Z,13.80
2023-02-24T19:21:37.364Z,14.97
2023-02-24T19:24:08.523Z,8.33
2023-02-24T19:26:37.139Z,7.27
2023-02-24T19:29:05.782Z,7.73
2023-02-24T19:31:35.025Z,7.63
2023-02-24T19:34:05.775Z,6.93
2023-02-24T19:36:38.028Z,6.40
2023-02-24T19:39:10.086Z,6.97
2023-02-24T19:41:38.673Z,6.67
2023-02-24T19:44:07.129Z,7.07
2023-02-24T19:46:36.501Z,4.87
2023-02-24T19:49:05.521Z,22.93
2023-02-24T19:51:36.931Z,5.90
2023-02-24T19:54:06.587Z,5.30
2023-02-24T19:56:37.917Z,5.63
2023-02-24T19:59:08.313Z,7.50
2023-02-24T20:01:36.903Z,10.53
2023-02-24T20:04:05.751Z,6.20
2023-02-24T20:06:37.354Z,23.03
2023-02-24T20:09:07.246Z,19.90
2023-02-24T20:11:37.170Z,8.27
2023-02-24T20:14:05.847Z,11.47
2023-02-24T20:16:34.975Z,13.90
2023-02-24T20:19:03.562Z,9.40
2023-02-24T20:21:32.480Z,19.90
2023-02-24T20:24:03.465Z,7.97
2023-02-24T20:26:32.836Z,9.70
2023-02-24T20:29:01.911Z,19.60
2023-02-24T20:31:30.512Z,7.80
2023-02-24T20:33:59.065Z,6.93
2023-02-24T20:36:29.813Z,7.93
2023-02-24T20:39:01.408Z,11.93
2023-02-24T20:41:30.354Z,7.53
2023-02-24T20:43:58.781Z,6.90
2023-02-24T20:46:28.977Z,5.90
2023-02-24T20:48:59.602Z,6.57
2023-02-24T20:51:30.069Z,5.83
2023-02-24T20:53:59.208Z,6.30
2023-02-24T20:56:30.341Z,5.70
2023-02-24T20:59:01.256Z,5.57
2023-02-24T21:01:30.597Z,6.50
2023-02-24T21:03:59.522Z,5.37
2023-02-24T21:06:28.856Z,6.00
2023-02-24T21:08:57.582Z,6.87
2023-02-24T21:11:26.767Z,25.23
2023-02-24T21:13:56.691Z,15.87
2023-02-24T21:16:27.128Z,9.27
2023-02-24T21:18:56.963Z,7.33
2023-02-24T21:21:26.001Z,7.00
2023-02-24T21:23:54.370Z,6.40
2023-02-24T21:26:25.100Z,8.97
2023-02-24T21:28:57.842Z,7.17
2023-02-24T21:31:28.089Z,7.67
2023-02-24T21:33:57.325Z,8.37
2023-02-24T21:36:28.169Z,9.37
2023-02-24T21:38:56.759Z,8.07
2023-02-24T21:41:25.467Z,7.47
2023-02-24T21:43:56.622Z,7.90
2023-02-24T21:46:28.847Z,7.37
2023-02-24T21:48:58.627Z,6.80
2023-02-24T21:51:28.634Z,8.07
2023-02-24T21:53:58.097Z,7.53
2023-02-24T21:56:28.961Z,8.40
2023-02-24T21:59:01.873Z,7.63
2023-02-24T22:01:33.086Z,7.73
2023-02-24T22:04:04.257Z,11.30
2023-02-24T22:06:34.504Z,12.53
2023-02-24T22:09:03.964Z,8.00
2023-02-24T22:11:35.339Z,7.97
2023-02-24T22:14:07.539Z,7.90
2023-02-24T22:16:35.998Z,9.13
2023-02-24T22:19:05.046Z,7.60
2023-02-24T22:21:33.665Z,8.00
2023-02-24T22:24:04.305Z,6.50
2023-02-24T22:26:33.085Z,7.37
2023-02-24T22:29:02.484Z,6.77
2023-02-24T22:31:34.429Z,7.07
2023-02-24T22:34:04.541Z,6.50
2023-02-24T22:36:36.857Z,6.73
2023-02-24T22:39:06.803Z,7.37
2023-02-24T22:41:36.525Z,5.90
2023-02-24T22:44:06.583Z,6.90
2023-02-24T22:46:39.515Z,5.83
2023-02-24T22:49:08.412Z,5.80
2023-02-24T22:51:36.786Z,5.70
2023-02-24T22:54:06.008Z,5.80
2023-02-24T22:56:34.553Z,5.30
2023-02-24T22:59:03.173Z,5.30
2023-02-24T23:01:33.852Z,5.33
2023-02-24T23:04:05.084Z,5.67
2023-02-24T23:06:34.061Z,5.70
2023-02-24T23:09:03.287Z,5.83
2023-02-24T23:11:34.148Z,5.00
2023-02-24T23:14:10.238Z,4.90
2023-02-24T23:16:40.113Z,4.70
2023-02-24T23:19:13.470Z,5.87
2023-02-24T23:21:44.438Z,4.30
2023-02-24T23:24:14.353Z,3.97
2023-02-24T23:26:44.990Z,3.90
2023-02-24T23:29:15.097Z,4.03
2023-02-24T23:31:43.830Z,3.77
2023-02-24T23:34:13.869Z,3.63
2023-02-24T23:36:44.537Z,3.40
2023-02-24T23:39:15.008Z,4.00
2023-02-24T23:41:43.391Z,3.63
2023-02-24T23:44:12.721Z,3.70
2023-02-24T23:46:42.011Z,3.60
2023-02-24T23:49:10.568Z,3.77
2023-02-24T23:51:48.430Z,3.73
2023-02-24T23:54:17.685Z,3.70
2023-02-24T23:56:46.779Z,3.97
2023-02-24T23:59:15.841Z,4.23
